createdAt,value
2023-05-13T00:01:29.378Z,77.98
2023-05-13T00:06:32.210Z,78.63
2023-05-13T00:11:34.422Z,78.86
2023-05-13T00:16:36.028Z,79.13
2023-05-13T00:21:37.670Z,78.92
2023-05-13T00:26:39.255Z,79.48
2023-05-13T00:31:40.961Z,79.96
2023-05-13T00:36:43.599Z,80.01
2023-05-13T00:41:45.356Z,79.62
2023-05-13T00:46:47.085Z,79.96
2023-05-13T00:51:48.745Z,80.26
2023-05-13T00:56:54.377Z,79.77
2023-05-13T01:02:14.165Z,79.18
2023-05-13T01:07:24.437Z,79.42
2023-05-13T01:12:32.598Z,79.41
2023-05-13T01:17:46.420Z,79.92
2023-05-13T01:22:48.237Z,79.88
2023-05-13T01:27:50.815Z,79.60
2023-05-13T01:32:52.964Z,79.70
2023-05-13T01:37:57.025Z,79.90
2023-05-13T01:43:00.635Z,80.17
2023-05-13T01:48:02.470Z,80.45
2023-05-13T01:53:14.104Z,79.76
2023-05-13T01:58:16.206Z,80.00
2023-05-13T02:03:18.698Z,79.66
2023-05-13T02:08:21.737Z,79.67
2023-05-13T02:13:23.695Z,79.26
2023-05-13T02:18:25.532Z,79.33
2023-05-13T02:23:27.106Z,79.45
2023-05-13T02:28:30.491Z,79.67
2023-05-13T02:33:32.213Z,80.85
2023-05-13T02:38:33.925Z,80.74
2023-05-13T02:43:36.919Z,80.95
2023-05-13T02:48:40.903Z,81.22
2023-05-13T02:53:42.630Z,81.08
2023-05-13T02:58:44.767Z,81.10
2023-05-13T03:03:46.509Z,80.52
2023-05-13T03:08:48.301Z,80.26
2023-05-13T03:13:49.952Z,80.29
2023-05-13T03:18:51.630Z,80.82
2023-05-13T03:23:54.169Z,80.55
2023-05-13T03:28:55.925Z,81.25
2023-05-13T03:33:58.069Z,80.63
2023-05-13T03:38:59.847Z,80.90
2023-05-13T03:44:01.904Z,81.12
2023-05-13T03:49:03.807Z,80.72
2023-05-13T03:54:05.610Z,80.92
2023-05-13T03:59:07.529Z,80.91
2023-05-13T04:04:11.081Z,80.44
2023-05-13T04:09:12.707Z,80.30
2023-05-13T04:14:14.301Z,79.89
2023-05-13T04:19:21.291Z,79.46
2023-05-13T04:24:22.914Z,78.61
2023-05-13T04:29:24.488Z,78.07
2023-05-13T04:34:26.337Z,77.46
2023-05-13T04:39:28.013Z,77.27
2023-05-13T04:44:29.906Z,76.60
2023-05-13T04:49:31.666Z,75.51
2023-05-13T04:54:35.942Z,74.20
2023-05-13T04:59:37.687Z,72.46
2023-05-13T05:04:39.476Z,73.33
2023-05-13T05:09:46.397Z,72.53
2023-05-13T05:14:48.054Z,71.92
2023-05-13T05:19:50.589Z,71.07
2023-05-13T05:24:52.252Z,69.88
2023-05-13T05:29:53.862Z,69.84
2023-05-13T05:34:55.607Z,68.63
2023-05-13T05:39:57.351Z,67.87
2023-05-13T05:44:59.070Z,67.30
2023-05-13T05:50:00.730Z,66.95
2023-05-13T05:55:03.463Z,66.57
2023-05-13T06:00:06.287Z,66.79
2023-05-13T06:05:16.649Z,66.34
2023-05-13T06:10:19.792Z,65.78
2023-05-13T06:15:21.589Z,65.56
2023-05-13T06:20:23.700Z,65.19
2023-05-13T06:25:25.851Z,63.50
2023-05-13T06:30:27.518Z,63.81
2023-05-13T06:35:29.218Z,63.19
2023-05-13T06:40:30.989Z,63.04
2023-05-13T06:45:32.660Z,62.16
2023-05-13T06:50:34.673Z,60.92
2023-05-13T06:55:41.437Z,60.88
2023-05-13T07:00:43.314Z,60.02
2023-05-13T07:05:44.975Z,59.28
2023-05-13T07:10:46.636Z,59.17
2023-05-13T07:15:48.628Z,58.56
2023-05-13T07:20:50.493Z,59.18
2023-05-13T07:25:52.482Z,58.85
2023-05-13T07:30:54.257Z,58.36
2023-05-13T07:35:55.993Z,57.98
2023-05-13T07:40:57.677Z,57.97
2023-05-13T07:45:59.261Z,57.08
2023-05-13T07:51:00.929Z,56.82
2023-05-13T07:56:03.133Z,55.07
2023-05-13T08:01:05.211Z,54.48
2023-05-13T08:06:06.896Z,54.98
2023-05-13T08:11:08.454Z,54.32
2023-05-13T08:16:10.093Z,53.53
2023-05-13T08:21:11.737Z,52.37
2023-05-13T08:26:13.905Z,53.54
2023-05-13T08:31:15.532Z,53.67
2023-05-13T08:36:17.365Z,51.87
2023-05-13T08:41:21.710Z,50.77
2023-05-13T08:46:25.169Z,50.98
2023-05-13T08:51:26.942Z,50.71
2023-05-13T08:56:29.759Z,50.62
2023-05-13T09:01:31.838Z,51.46
2023-05-13T09:06:33.771Z,51.39
2023-05-13T09:11:35.459Z,50.62
2023-05-13T09:16:37.189Z,50.19
2023-05-13T09:21:39.543Z,50.05
2023-05-13T09:26:42.158Z,50.15
2023-05-13T09:31:45.133Z,49.86
2023-05-13T09:36:47.981Z,50.47
2023-05-13T09:41:50.863Z,49.53
2023-05-13T09:46:53.420Z,49.63
2023-05-13T09:51:55.077Z,49.17
2023-05-13T09:57:01.354Z,49.07
2023-05-13T10:02:05.571Z,48.92
2023-05-13T10:07:07.793Z,49.49
2023-05-13T10:12:09.909Z,50.00
2023-05-13T10:17:11.720Z,49.29
2023-05-13T10:22:14.342Z,49.80
2023-05-13T10:27:16.031Z,50.14
2023-05-13T10:32:17.933Z,49.68
2023-05-13T10:37:37.661Z,49.46
2023-05-13T10:42:44.455Z,49.36
2023-05-13T10:47:50.219Z,49.19
2023-05-13T10:52:56.038Z,49.67
2023-05-13T10:58:11.008Z,49.05
2023-05-13T11:03:30.008Z,50.80
2023-05-13T11:08:36.848Z,50.06
2023-05-13T11:13:38.503Z,51.00
2023-05-13T11:18:40.246Z,50.93
2023-05-13T11:23:51.766Z,50.64
2023-05-13T11:28:58.512Z,50.51
2023-05-13T11:34:07.279Z,54.51
2023-05-13T11:39:27.659Z,55.17
2023-05-13T11:44:29.285Z,53.72
2023-05-13T11:49:42.746Z,51.55
2023-05-13T11:54:44.351Z,47.90
2023-05-13T12:00:13.361Z,46.12
2023-05-13T12:05:14.957Z,45.83
2023-05-13T12:10:17.430Z,46.24
2023-05-13T12:15:20.256Z,46.01
2023-05-13T12:20:23.323Z,46.35
2023-05-13T12:25:45.412Z,46.73
2023-05-13T12:30:59.970Z,46.84
2023-05-13T12:36:26.104Z,47.35
2023-05-13T12:41:30.722Z,47.70
2023-05-13T12:46:32.735Z,48.97
2023-05-13T12:51:34.675Z,50.40
2023-05-13T12:56:36.440Z,49.84
2023-05-13T13:01:38.110Z,49.79
2023-05-13T13:06:39.832Z,49.42
2023-05-13T13:11:41.629Z,49.32
2023-05-13T13:16:43.644Z,48.61
2023-05-13T13:21:45.316Z,49.53
2023-05-13T13:26:46.921Z,49.82
2023-05-13T13:31:48.622Z,49.42
2023-05-13T13:36:50.336Z,49.70
2023-05-13T13:41:51.961Z,49.95
2023-05-13T13:46:53.558Z,49.33
2023-05-13T13:51:56.739Z,49.23
2023-05-13T13:56:58.827Z,49.33
2023-05-13T14:02:00.618Z,49.79
2023-05-13T14:07:02.621Z,49.71
2023-05-13T14:12:04.490Z,50.59
2023-05-13T14:17:06.211Z,52.17
2023-05-13T14:22:07.790Z,52.28
2023-05-13T14:27:09.430Z,52.50
2023-05-13T14:32:10.997Z,52.92
2023-05-13T14:37:12.622Z,52.47
2023-05-13T14:42:14.246Z,51.96
2023-05-13T14:47:15.922Z,52.79
2023-05-13T14:52:17.598Z,52.22
2023-05-13T14:57:19.290Z,52.13
2023-05-13T15:02:20.960Z,52.68
2023-05-13T15:07:22.661Z,52.21
2023-05-13T15:12:24.868Z,52.54
2023-05-13T15:17:26.783Z,52.46
2023-05-13T15:22:28.405Z,52.86
2023-05-13T15:27:29.972Z,53.65
2023-05-13T15:32:31.601Z,56.71
2023-05-13T15:37:33.245Z,58.60
2023-05-13T15:42:36.759Z,59.08
2023-05-13T15:47:38.465Z,58.74
2023-05-13T15:52:40.245Z,58.63
2023-05-13T15:57:41.847Z,57.85
2023-05-13T16:02:44.221Z,57.13
2023-05-13T16:07:46.464Z,58.60
2023-05-13T16:12:48.490Z,58.82
2023-05-13T16:17:50.208Z,59.36
2023-05-13T16:22:51.924Z,59.96
2023-05-13T16:27:54.843Z,59.40
2023-05-13T16:32:56.733Z,60.33
2023-05-13T16:37:58.321Z,60.38
2023-05-13T16:43:03.248Z,60.79
2023-05-13T16:48:06.405Z,61.80
2023-05-13T16:53:08.032Z,62.61
2023-05-13T16:58:09.591Z,62.72
2023-05-13T17:03:13.379Z,62.90
2023-05-13T17:08:17.101Z,63.51
2023-05-13T17:13:19.690Z,66.17
2023-05-13T17:18:21.284Z,67.57
2023-05-13T17:23:22.910Z,67.51
2023-05-13T17:28:24.709Z,67.99
2023-05-13T17:33:26.370Z,68.62
2023-05-13T17:38:27.960Z,68.33
2023-05-13T17:43:29.592Z,68.61
2023-05-13T17:48:33.090Z,69.50
2023-05-13T17:53:35.219Z,68.52
2023-05-13T17:58:37.032Z,68.64
2023-05-13T18:03:38.620Z,69.68
2023-05-13T18:08:40.173Z,69.65
2023-05-13T18:13:41.711Z,69.53
2023-05-13T18:18:43.369Z,69.21
2023-05-13T18:23:46.481Z,69.41
2023-05-13T18:28:48.089Z,69.27
2023-05-13T18:33:49.662Z,69.31
2023-05-13T18:38:51.270Z,69.40
2023-05-13T18:43:52.888Z,68.94
2023-05-13T18:48:54.432Z,69.44
2023-05-13T18:53:56.105Z,69.47
2023-05-13T18:58:57.968Z,69.43
2023-05-13T19:03:59.647Z,69.44
2023-05-13T19:09:01.305Z,69.27
2023-05-13T19:14:02.960Z,69.54
2023-05-13T19:19:04.720Z,69.80
2023-05-13T19:24:06.510Z,69.94
2023-05-13T19:29:08.244Z,70.20
2023-05-13T19:34:09.889Z,71.75
2023-05-13T19:39:11.490Z,70.24
2023-05-13T19:44:13.039Z,70.24
2023-05-13T19:49:14.718Z,70.18
2023-05-13T19:54:16.496Z,70.46
2023-05-13T19:59:18.158Z,71.47
2023-05-13T20:04:19.725Z,70.84
2023-05-13T20:09:21.470Z,70.81
2023-05-13T20:14:23.239Z,71.76
2023-05-13T20:19:24.814Z,71.54
2023-05-13T20:24:26.407Z,71.92
2023-05-13T20:29:33.787Z,72.51
2023-05-13T20:34:36.298Z,72.32
2023-05-13T20:39:37.890Z,72.37
2023-05-13T20:44:39.656Z,72.71
2023-05-13T20:49:43.803Z,72.83
2023-05-13T20:54:45.582Z,72.94
2023-05-13T20:59:47.220Z,73.08
2023-05-13T21:04:48.759Z,72.40
2023-05-13T21:09:50.323Z,72.54
2023-05-13T21:14:51.910Z,72.25
2023-05-13T21:19:53.508Z,72.31
2023-05-13T21:24:55.340Z,71.85
2023-05-13T21:29:57.160Z,71.97
2023-05-13T21:34:58.733Z,72.05
2023-05-13T21:40:00.540Z,72.50
2023-05-13T21:45:02.827Z,72.27
2023-05-13T21:50:06.885Z,72.67
2023-05-13T21:55:08.969Z,72.99
2023-05-13T22:00:15.119Z,73.07
2023-05-13T22:05:19.572Z,73.73
2023-05-13T22:10:21.327Z,74.06
2023-05-13T22:15:23.099Z,73.68
2023-05-13T22:20:25.187Z,74.22
2023-05-13T22:25:27.262Z,74.25
2023-05-13T22:30:28.984Z,74.63
2023-05-13T22:35:31.883Z,74.21
2023-05-13T22:40:33.542Z,73.89
2023-05-13T22:45:36.758Z,73.98
2023-05-13T22:50:38.466Z,74.54
2023-05-13T22:55:40.048Z,74.50
2023-05-13T23:00:41.675Z,74.97
2023-05-13T23:05:43.240Z,75.29
2023-05-13T23:10:44.914Z,75.66
2023-05-13T23:15:46.618Z,75.55
2023-05-13T23:20:55.806Z,76.47
2023-05-13T23:25:57.495Z,76.66
2023-05-13T23:30:59.223Z,76.36
2023-05-13T23:36:00.842Z,76.79
2023-05-13T23:41:02.472Z,77.02
2023-05-13T23:46:04.157Z,77.48
2023-05-13T23:51:06.168Z,78.21
2023-05-13T23:56:08.175Z,77.95
